KEULKMYL

Guest
Details From KEUL - CALDWELL INDUSTRIAL
To KMYL - Mc Call Muni
Flight Number -
Tags generated
Created
Modified
Stats Distance 79 nm / 146 km
Max Altitude 1,800 ft / 549 m
Waypoints 3
Social Downloads 2
Likes 0
Share VATSIM

Download

Looking for another format? Having issues loading an existing format? Contact us
Advertisement - Login to hide

Notes

Basic altitude profile: - Ascent Rate: 2500ft/min - Ascent Speed: 250kts - Cruise Altitude: 18000ft - Cruise Speed: 420kts - Descent Rate: 1500ft/min - Descent Speed: 250kts Options: - Use NATs: yes - Use PACOTS: yes - Use low airways: yes - Use high airways: yes

Route

KEUL DNJ KMYL

ID Type Via Altitude Latitude Longitude Leg Dist Tot Dist Heading (true) Name
O KEUL APT - 0 ft / 0 m 43.64185˚ -116.63576˚ - 0 nm - CALDWELL INDUSTRIAL
DNJ VOR - 1,800 ft / 549 m 44.76711˚ -116.20628˚ 70 nm 70 nm 15° / 15° DONNELLY VOR-DME
O KMYL APT - 0 ft / 0 m 44.88874˚ -116.10175˚ 8 nm 78 nm 31° / 31° Mc Call Muni

Altitude Profile

Advertisement - Login to hide

KEUL

Details ICAO KEUL
Name CALDWELL INDUSTRIAL
Region United States
Timezone America/Boise (UTC-6.0)
Stats Elevation 2,431 ft / 741 m (AMSL)
Location 43.641847° -116.635763°
Runways 1
Magnetic Variation 13.532° E

METAR

KEUL 191556Z AUTO 27008KT 10SM CLR 21/07 A3004 RMK AO2 SLP154 T02110072

Decode

TAF

KEUL 191120Z 1912/2012 VRB06KT P6SM SKC

Decode

Departure Runways

ID Width Length Bearing (true) Bearing (mag) Surface Threshold Offset Overrun Length
12 100 ft / 30 m 5,496 ft / 1,675 m 135.21° 121.68° Asphalt 0 ft / 0 m 0 ft / 0 m
30 100 ft / 30 m 5,496 ft / 1,675 m 315.22° 301.69° Asphalt 0 ft / 0 m 0 ft / 0 m

KMYL

Details ICAO KMYL (MYL)
Name Mc Call Muni
Region United States
Timezone America/Boise (UTC-6.0)
Stats Elevation 5,020 ft / 1,530 m (AMSL)
Location 44.888738° -116.101747°
Runways 1
Magnetic Variation 13.623° E

METAR

KMYL 191551Z AUTO 13003KT 10SM CLR 16/04 A3012 RMK AO2 SLP158 T01610039

Decode

TAF

TAF KMYL 191120Z 1912/2012 VRB03KT P6SM FEW250 FM192100 25010G18KT P6SM SKC FM200200 34004KT P6SM SKC

Decode

Destination Runways

ID Width Length Bearing (true) Bearing (mag) Surface Threshold Offset Overrun Length
16 75 ft / 23 m 6,113 ft / 1,863 m 178.61° 164.99° Asphalt 0 ft / 0 m 56 ft / 17 m
34 75 ft / 23 m 6,113 ft / 1,863 m 358.61° 344.99° Asphalt 0 ft / 0 m 0 ft / 0 m

Popular Alternatives